Accueil
METAR-TAF:

METAR-TAF

Aéroports :

Taipei, Taïwan

Aéroport international Taiwan Taoyuan

latitude: 25-05N, longitude: 121-13E, altitude: 33 m

Observation

Le bulletin a été fait il y a 22 minutes, à 16:00 UTC
Vent 8 kt de sud-ouest
Température 28°C
Humidité 79%
Pression 1010 hPa
Visibilité 10 km ou plus
Quelques nuages à une hauteur de 2000 ft

METAR: RCTP 261600Z 23008KT 9999 FEW020 28/24 Q1010 NOSIG RMK A2983

Heure: 00:22 (16:22 UTC)

Prévision

Le bulletin a été fait il y a 5 heures et 22 minutes, à 11:00 UTC
Prévision valable du 26 à 12 UTC au 27 à 18 UTC
Vent 5 kt de sud/sud-ouest
Visibilité 10 km ou plus
Quelques nuages à une hauteur de 2500 ft
Evoluant progressivement
du 27 à 01 UTC au 27 à 03 UTC
Vent 8 kt de ouest/sud-ouest
Temporairement
du 27 à 03 UTC au 27 à 09 UTC
Vent 15 kt de sud/sud-ouest

TAF: RCTP 261100Z 2612/2718 21005KT 9999 FEW025 BECMG 2701/2703 24008KT TEMPO 2703/2709 21015KT

Observations et prévisions météorologiques de plus de 4000 aéroports (messages METAR et TAF).

Les stations disponibles sont représentées par des disques jaunes et rouges sur la carte.

Passer la souris dessus pour voir le nom de la station.

Cliquer dessus pour voir les observations et prévisions météorologiques.

Pour changer de carte: cliquez sur les boutons verts avec une croix noire pour zoomer, sur le bouton vert avec un tiret pour effectuer un zoom arrière, ou sur les flèches vertes pour les cartes adjacentes.


METAR-TAF: